createdAt,value
2022-08-09T00:04:34.340Z,100559.06
2022-08-09T00:09:39.130Z,100563.44
2022-08-09T00:14:42.199Z,100570.25
2022-08-09T00:19:48.696Z,100560.75
2022-08-09T00:24:55.803Z,100552.06
2022-08-09T00:30:23.515Z,100562.00
2022-08-09T00:35:21.796Z,100554.56
2022-08-09T00:40:30.356Z,100558.91
2022-08-09T00:45:35.205Z,100560.81
2022-08-09T00:50:38.576Z,100564.72
2022-08-09T00:56:04.862Z,100562.88
2022-08-09T01:01:19.333Z,100563.72
2022-08-09T01:06:54.820Z,100566.19
2022-08-09T01:12:12.811Z,100574.06
2022-08-09T01:17:23.633Z,100559.19
2022-08-09T01:23:00.355Z,100550.28
2022-08-09T01:28:05.743Z,100552.97
2022-08-09T01:33:10.262Z,100542.22
2022-08-09T01:38:24.730Z,100537.25
2022-08-09T01:43:29.311Z,100539.31
2022-08-09T01:48:38.032Z,100539.53
2022-08-09T01:53:42.665Z,100534.38
2022-08-09T01:58:49.060Z,100522.38
2022-08-09T02:03:56.554Z,100518.22
2022-08-09T02:09:00.004Z,100518.44
2022-08-09T02:14:07.524Z,100522.59
2022-08-09T02:19:11.225Z,100534.38
2022-08-09T02:24:26.385Z,100521.34
2022-08-09T02:29:35.454Z,100529.63
2022-08-09T02:34:51.967Z,100529.81
2022-08-09T02:40:10.371Z,100522.59
2022-08-09T02:45:34.269Z,100525.44
2022-08-09T02:51:01.777Z,100511.59
2022-08-09T02:56:07.582Z,100514.28
2022-08-09T03:01:15.079Z,100507.47
2022-08-09T03:06:27.537Z,100523.16
2022-08-09T03:12:05.695Z,100521.50
2022-08-09T03:16:55.657Z,100520.91
2022-08-09T03:22:03.083Z,100516.56
2022-08-09T03:27:11.960Z,100513.22
2022-08-09T03:32:18.048Z,100519.25
2022-08-09T03:37:55.242Z,100530.19
2022-08-09T03:42:47.157Z,100521.09
2022-08-09T03:47:50.313Z,100519.66
2022-08-09T03:52:59.842Z,100514.06
2022-08-09T03:58:14.961Z,100521.09
2022-08-09T04:03:35.607Z,100514.50
2022-08-09T04:08:46.599Z,100524.19
2022-08-09T04:14:53.981Z,100519.66
2022-08-09T04:19:15.843Z,100519.84
2022-08-09T04:24:33.291Z,100522.53
2022-08-09T04:29:36.149Z,100531.44
2022-08-09T04:34:54.035Z,100537.25
2022-08-09T04:39:57.353Z,100534.78
2022-08-09T04:45:01.460Z,100543.25
2022-08-09T04:50:05.275Z,100545.13
2022-08-09T04:55:13.505Z,100536.81
2022-08-09T05:00:17.396Z,100540.09
2022-08-09T05:05:32.390Z,100537.94
2022-08-09T05:10:45.072Z,100543.69
2022-08-09T05:15:56.446Z,100553.56
2022-08-09T05:21:01.231Z,100541.84
2022-08-09T05:26:04.542Z,100541.75
2022-08-09T05:31:09.377Z,100546.22
2022-08-09T05:36:15.570Z,100549.25
2022-08-09T05:41:18.669Z,100550.13
2022-08-09T05:46:21.429Z,100555.75
2022-08-09T05:51:42.743Z,100562.00
2022-08-09T05:56:54.729Z,100563.56
2022-08-09T06:01:58.920Z,100550.19
2022-08-09T06:07:03.873Z,100558.50
2022-08-09T06:12:07.024Z,100559.19
2022-08-09T06:17:12.042Z,100552.56
2022-08-09T06:22:17.412Z,100549.47
2022-08-09T06:27:20.669Z,100551.94
2022-08-09T06:33:00.112Z,100557.63
2022-08-09T06:38:05.247Z,100559.94
2022-08-09T06:43:10.592Z,100553.13
2022-08-09T06:48:16.564Z,100557.31
2022-08-09T06:53:20.171Z,100551.28
2022-08-09T07:00:47.023Z,100550.31
2022-08-09T07:03:52.547Z,100554.28
2022-08-09T07:08:57.680Z,100546.03
2022-08-09T07:14:04.910Z,100556.56
2022-08-09T07:19:15.570Z,100551.94
2022-08-09T07:24:21.421Z,100552.28
2022-08-09T07:29:42.507Z,100546.16
2022-08-09T07:34:46.004Z,100543.47
2022-08-09T07:39:50.127Z,100541.09
2022-08-09T07:44:56.271Z,100543.53
2022-08-09T07:50:07.846Z,100533.91
2022-08-09T07:55:11.853Z,100535.25
2022-08-09T08:00:35.606Z,100542.97
2022-08-09T08:05:57.868Z,100545.19
2022-08-09T08:11:03.358Z,100541.00
2022-08-09T08:16:31.365Z,100546.56
2022-08-09T08:21:39.479Z,100546.69
2022-08-09T08:26:56.173Z,100529.78
2022-08-09T08:32:03.927Z,100535.41
2022-08-09T08:37:14.332Z,100538.50
2022-08-09T08:42:24.375Z,100526.63
2022-08-09T08:47:38.534Z,100538.69
2022-08-09T08:52:58.340Z,100531.44
2022-08-09T08:58:03.279Z,100529.84
2022-08-09T09:03:20.735Z,100518.16
2022-08-09T09:08:29.915Z,100524.28
2022-08-09T09:13:55.560Z,100517.28
2022-08-09T09:19:36.623Z,100511.97
2022-08-09T09:24:34.686Z,100514.47
2022-08-09T09:30:12.089Z,100521.31
2022-08-09T09:35:10.735Z,100516.75
2022-08-09T09:40:16.572Z,100513.28
2022-08-09T09:45:26.607Z,100510.28
2022-08-09T09:50:51.325Z,100511.41
2022-08-09T09:56:04.579Z,100513.88
2022-08-09T10:01:37.359Z,100508.41
2022-08-09T10:06:51.793Z,100503.72
2022-08-09T10:12:14.844Z,100498.25
2022-08-09T10:17:51.308Z,100502.31
2022-08-09T10:22:58.523Z,100492.97
2022-08-09T10:28:04.123Z,100483.69
2022-08-09T10:33:08.105Z,100472.44
2022-08-09T10:38:33.994Z,100480.00
2022-08-09T10:43:50.546Z,100478.50
2022-08-09T10:49:50.921Z,100487.03
2022-08-09T10:55:22.827Z,100470.34
2022-08-09T11:00:29.478Z,100471.94
2022-08-09T11:05:32.400Z,100470.75
2022-08-09T11:10:47.162Z,100468.94
2022-08-09T11:16:41.223Z,100458.72
2022-08-09T11:21:57.390Z,100462.91
2022-08-09T11:28:05.486Z,100453.69
2022-08-09T11:33:17.750Z,100458.78
2022-08-09T11:38:32.947Z,100456.13
2022-08-09T11:43:46.687Z,100462.25
2022-08-09T11:48:58.098Z,100457.13
2022-08-09T11:54:28.716Z,100458.78
2022-08-09T11:59:37.814Z,100458.28
2022-08-09T12:04:41.396Z,100452.28
2022-08-09T12:09:50.718Z,100452.59
2022-08-09T12:15:08.318Z,100448.22
2022-08-09T12:20:22.948Z,100447.13
2022-08-09T12:25:36.794Z,100443.00
2022-08-09T12:30:42.096Z,100439.44
2022-08-09T12:35:45.746Z,100440.53
2022-08-09T12:40:52.251Z,100432.06
2022-08-09T12:46:00.308Z,100425.25
2022-08-09T12:51:04.626Z,100425.81
2022-08-09T12:56:34.810Z,100424.97
2022-08-09T13:02:01.193Z,100418.69
2022-08-09T13:07:51.015Z,100422.53
2022-08-09T13:13:08.986Z,100415.44
2022-08-09T13:18:17.506Z,100417.91
2022-08-09T13:24:16.797Z,100409.72
2022-08-09T13:29:42.028Z,100414.56
2022-08-09T13:34:47.706Z,100413.44
2022-08-09T13:41:52.525Z,100415.84
2022-08-09T13:45:15.819Z,100403.47
2022-08-09T13:50:30.934Z,100406.09
2022-08-09T13:55:34.983Z,100398.59
2022-08-09T14:00:48.209Z,100404.66
2022-08-09T14:05:59.171Z,100393.72
2022-08-09T14:11:03.059Z,100399.97
2022-08-09T14:16:17.747Z,100403.34
2022-08-09T14:21:24.172Z,100410.00
2022-08-09T14:26:31.800Z,100408.16
2022-08-09T14:31:49.670Z,100392.84
2022-08-09T14:36:53.206Z,100399.66
2022-08-09T14:41:56.751Z,100399.34
2022-08-09T14:47:12.491Z,100399.59
2022-08-09T14:52:19.987Z,100398.78
2022-08-09T14:57:31.855Z,100397.75
2022-08-09T15:02:47.255Z,100394.22
2022-08-09T15:07:54.667Z,100390.41
2022-08-09T15:13:01.701Z,100383.84
2022-08-09T15:18:06.709Z,100387.41
2022-08-09T15:24:01.003Z,100379.50
2022-08-09T15:28:34.507Z,100377.22
2022-08-09T15:34:04.375Z,100372.78
2022-08-09T15:39:00.941Z,100370.66
2022-08-09T15:44:04.195Z,100376.13
2022-08-09T15:49:21.239Z,100372.50
2022-08-09T15:54:30.088Z,100372.19
2022-08-09T15:59:37.977Z,100368.81
2022-08-09T16:04:42.679Z,100378.16
2022-08-09T16:10:02.223Z,100380.09
2022-08-09T16:16:04.628Z,100378.81
2022-08-09T16:20:33.117Z,100378.97
2022-08-09T16:25:39.602Z,100379.75
2022-08-09T16:30:44.783Z,100372.97
2022-08-09T16:36:01.893Z,100383.41
2022-08-09T16:41:08.050Z,100386.72
2022-08-09T16:46:21.374Z,100385.72
2022-08-09T16:51:24.594Z,100395.94
2022-08-09T16:56:27.672Z,100399.00
2022-08-09T17:01:35.465Z,100402.31
2022-08-09T17:08:41.233Z,100401.81
2022-08-09T17:12:02.158Z,100397.47
2022-08-09T17:17:23.306Z,100392.63
2022-08-09T17:22:31.142Z,100395.66
2022-08-09T17:27:38.285Z,100395.38
2022-08-09T17:32:46.279Z,100396.50
2022-08-09T17:38:02.497Z,100401.13
2022-08-09T17:43:34.202Z,100410.69
2022-08-09T17:48:40.379Z,100410.94
2022-08-09T17:53:48.165Z,100425.34
2022-08-09T17:59:03.108Z,100437.81
2022-08-09T18:04:06.344Z,100440.16
2022-08-09T18:09:12.080Z,100447.47
2022-08-09T18:14:21.324Z,100460.44
2022-08-09T18:20:54.656Z,100471.25
2022-08-09T18:24:47.121Z,100475.25
2022-08-09T18:30:35.529Z,100484.66
2022-08-09T18:35:12.874Z,100506.66
2022-08-09T18:40:19.280Z,100521.03
2022-08-09T18:46:47.206Z,100529.66
2022-08-09T18:50:53.786Z,100542.41
2022-08-09T18:56:05.484Z,100558.41
2022-08-09T19:01:08.607Z,100576.91
2022-08-09T19:06:14.608Z,100580.63
2022-08-09T19:11:18.072Z,100593.34
2022-08-09T19:16:35.944Z,100596.22
2022-08-09T19:21:52.457Z,100605.03
2022-08-09T19:27:02.595Z,100598.56
2022-08-09T19:32:07.741Z,100624.56
2022-08-09T19:37:17.143Z,100632.28
2022-08-09T19:42:20.510Z,100639.25
2022-08-09T19:47:31.209Z,100641.03
2022-08-09T19:52:51.568Z,100641.38
2022-08-09T19:57:55.665Z,100642.78
2022-08-09T20:04:10.757Z,100642.34
2022-08-09T20:08:24.805Z,100641.84
2022-08-09T20:13:36.870Z,100650.63
2022-08-09T20:19:03.761Z,100662.34
2022-08-09T20:24:04.759Z,100670.84
2022-08-09T20:29:10.338Z,100671.47
2022-08-09T20:34:22.058Z,100680.00
2022-08-09T20:40:13.725Z,100679.56
2022-08-09T20:44:50.901Z,100682.16
2022-08-09T20:50:14.743Z,100678.78
2022-08-09T20:55:47.159Z,100680.75
2022-08-09T21:01:02.451Z,100684.44
2022-08-09T21:06:20.861Z,100684.56
2022-08-09T21:16:48.409Z,100695.75
2022-08-09T21:21:56.686Z,100702.94
2022-08-09T21:27:50.416Z,100706.38
2022-08-09T21:32:33.649Z,100702.09
2022-08-09T21:37:47.282Z,100711.50
2022-08-09T21:43:02.030Z,100708.91
2022-08-09T21:48:07.185Z,100710.22
2022-08-09T21:53:19.909Z,100703.03
2022-08-09T21:58:33.552Z,100703.50
2022-08-09T22:03:59.008Z,100706.69
2022-08-09T22:09:01.926Z,100700.56
2022-08-09T22:14:05.454Z,100702.53
2022-08-09T22:19:25.477Z,100701.84
2022-08-09T22:24:39.850Z,100701.94
2022-08-09T22:30:03.770Z,100696.63
2022-08-09T22:36:01.924Z,100692.88
2022-08-09T22:40:30.657Z,100690.63
2022-08-09T22:48:15.521Z,100688.03
2022-08-09T22:51:00.277Z,100694.22
2022-08-09T22:56:30.604Z,100686.19
2022-08-09T23:01:26.664Z,100689.59
2022-08-09T23:06:51.018Z,100685.78
2022-08-09T23:11:53.897Z,100697.03
2022-08-09T23:16:57.017Z,100692.97
2022-08-09T23:21:59.866Z,100690.22
2022-08-09T23:27:02.684Z,100684.06
2022-08-09T23:32:05.704Z,100681.69
2022-08-09T23:37:09.261Z,100676.91
2022-08-09T23:42:12.107Z,100675.47
2022-08-09T23:47:14.856Z,100681.34
2022-08-09T23:52:17.714Z,100682.25
2022-08-09T23:57:20.546Z,100684.38
